sensor_id;sensor_type;location;lat;lon;timestamp;temperature;humidity
15426;DHT22;7812;50.072;7.036;2023-12-20T00:00:54;6.00;99.90
15426;DHT22;7812;50.072;7.036;2023-12-20T00:03:20;5.90;99.90
15426;DHT22;7812;50.072;7.036;2023-12-20T00:05:46;5.90;99.90
15426;DHT22;7812;50.072;7.036;2023-12-20T00:08:12;6.00;99.90
15426;DHT22;7812;50.072;7.036;2023-12-20T00:10:38;6.00;99.90
15426;DHT22;7812;50.072;7.036;2023-12-20T00:13:03;6.00;99.90
15426;DHT22;7812;50.072;7.036;2023-12-20T00:15:29;6.00;99.90
15426;DHT22;7812;50.072;7.036;2023-12-20T00:17:55;5.90;99.90
15426;DHT22;7812;50.072;7.036;2023-12-20T00:20:20;5.90;99.90
15426;DHT22;7812;50.072;7.036;2023-12-20T00:22:46;5.80;99.90
15426;DHT22;7812;50.072;7.036;2023-12-20T00:25:12;5.80;99.90
15426;DHT22;7812;50.072;7.036;2023-12-20T00:27:37;5.90;99.90
15426;DHT22;7812;50.072;7.036;2023-12-20T00:30:04;6.00;99.90
15426;DHT22;7812;50.072;7.036;2023-12-20T00:32:29;6.10;99.90
15426;DHT22;7812;50.072;7.036;2023-12-20T00:34:55;6.10;99.90
15426;DHT22;7812;50.072;7.036;2023-12-20T00:37:21;6.10;99.90
15426;DHT22;7812;50.072;7.036;2023-12-20T00:39:47;6.10;99.90
15426;DHT22;7812;50.072;7.036;2023-12-20T00:42:13;6.00;99.90
15426;DHT22;7812;50.072;7.036;2023-12-20T00:44:39;5.90;99.90
15426;DHT22;7812;50.072;7.036;2023-12-20T00:47:04;5.90;99.90
15426;DHT22;7812;50.072;7.036;2023-12-20T00:49:30;5.90;99.90
15426;DHT22;7812;50.072;7.036;2023-12-20T00:52:20;6.00;99.90
15426;DHT22;7812;50.072;7.036;2023-12-20T00:54:48;6.00;99.90
15426;DHT22;7812;50.072;7.036;2023-12-20T00:57:13;6.00;99.90
15426;DHT22;7812;50.072;7.036;2023-12-20T00:59:39;6.10;99.90
15426;DHT22;7812;50.072;7.036;2023-12-20T01:02:05;6.00;99.90
15426;DHT22;7812;50.072;7.036;2023-12-20T01:04:30;6.00;99.90
15426;DHT22;7812;50.072;7.036;2023-12-20T01:06:56;6.00;99.90
15426;DHT22;7812;50.072;7.036;2023-12-20T01:09:21;6.00;99.90
15426;DHT22;7812;50.072;7.036;2023-12-20T01:11:52;6.10;99.90
15426;DHT22;7812;50.072;7.036;2023-12-20T01:14:18;6.00;99.90
15426;DHT22;7812;50.072;7.036;2023-12-20T01:16:44;6.00;99.90
15426;DHT22;7812;50.072;7.036;2023-12-20T01:19:10;6.00;99.90
15426;DHT22;7812;50.072;7.036;2023-12-20T01:21:35;6.00;99.90
15426;DHT22;7812;50.072;7.036;2023-12-20T01:24:01;6.10;99.90
15426;DHT22;7812;50.072;7.036;2023-12-20T01:26:27;6.10;99.90
15426;DHT22;7812;50.072;7.036;2023-12-20T01:28:53;6.00;99.90
15426;DHT22;7812;50.072;7.036;2023-12-20T01:31:18;6.10;99.90
15426;DHT22;7812;50.072;7.036;2023-12-20T01:33:44;6.20;99.90
15426;DHT22;7812;50.072;7.036;2023-12-20T01:36:10;6.20;99.90
15426;DHT22;7812;50.072;7.036;2023-12-20T01:38:36;6.10;99.90
15426;DHT22;7812;50.072;7.036;2023-12-20T01:41:02;6.10;99.90
15426;DHT22;7812;50.072;7.036;2023-12-20T01:43:29;6.20;99.90
15426;DHT22;7812;50.072;7.036;2023-12-20T01:45:56;6.10;99.90
15426;DHT22;7812;50.072;7.036;2023-12-20T01:48:22;6.30;99.90
15426;DHT22;7812;50.072;7.036;2023-12-20T01:50:49;6.40;99.90
15426;DHT22;7812;50.072;7.036;2023-12-20T01:53:15;6.50;99.90
15426;DHT22;7812;50.072;7.036;2023-12-20T01:55:41;6.50;99.90
15426;DHT22;7812;50.072;7.036;2023-12-20T01:58:08;6.50;99.90
15426;DHT22;7812;50.072;7.036;2023-12-20T02:00:36;6.60;99.90
15426;DHT22;7812;50.072;7.036;2023-12-20T02:03:03;6.50;99.90
15426;DHT22;7812;50.072;7.036;2023-12-20T02:05:33;6.40;99.90
15426;DHT22;7812;50.072;7.036;2023-12-20T02:07:59;6.40;99.90
15426;DHT22;7812;50.072;7.036;2023-12-20T02:10:25;6.30;99.90
15426;DHT22;7812;50.072;7.036;2023-12-20T02:12:51;6.20;99.90
15426;DHT22;7812;50.072;7.036;2023-12-20T02:15:17;6.20;99.90
15426;DHT22;7812;50.072;7.036;2023-12-20T02:17:44;6.20;99.90
15426;DHT22;7812;50.072;7.036;2023-12-20T02:20:10;6.20;99.90
15426;DHT22;7812;50.072;7.036;2023-12-20T02:22:36;6.20;99.90
15426;DHT22;7812;50.072;7.036;2023-12-20T02:25:02;6.10;99.90
15426;DHT22;7812;50.072;7.036;2023-12-20T02:27:28;6.10;99.90
15426;DHT22;7812;50.072;7.036;2023-12-20T02:29:54;6.20;99.90
15426;DHT22;7812;50.072;7.036;2023-12-20T02:32:21;6.20;99.90
15426;DHT22;7812;50.072;7.036;2023-12-20T02:34:48;6.20;99.90
15426;DHT22;7812;50.072;7.036;2023-12-20T02:37:14;6.10;99.90
15426;DHT22;7812;50.072;7.036;2023-12-20T02:39:40;6.00;99.90
15426;DHT22;7812;50.072;7.036;2023-12-20T02:42:05;6.00;99.90
15426;DHT22;7812;50.072;7.036;2023-12-20T02:44:31;6.00;99.90
15426;DHT22;7812;50.072;7.036;2023-12-20T02:46:56;5.90;99.90
15426;DHT22;7812;50.072;7.036;2023-12-20T02:49:22;5.90;99.90
15426;DHT22;7812;50.072;7.036;2023-12-20T02:51:48;5.90;99.90
15426;DHT22;7812;50.072;7.036;2023-12-20T02:54:13;5.90;99.90
15426;DHT22;7812;50.072;7.036;2023-12-20T02:56:39;5.90;99.90
15426;DHT22;7812;50.072;7.036;2023-12-20T02:59:05;5.90;99.90
15426;DHT22;7812;50.072;7.036;2023-12-20T03:01:31;5.80;99.90
15426;DHT22;7812;50.072;7.036;2023-12-20T03:03:57;5.90;99.90
15426;DHT22;7812;50.072;7.036;2023-12-20T03:06:23;5.90;99.90
15426;DHT22;7812;50.072;7.036;2023-12-20T03:08:48;5.90;99.90
15426;DHT22;7812;50.072;7.036;2023-12-20T03:11:14;6.00;99.90
15426;DHT22;7812;50.072;7.036;2023-12-20T03:13:40;6.10;99.90
15426;DHT22;7812;50.072;7.036;2023-12-20T03:16:09;6.00;99.90
15426;DHT22;7812;50.072;7.036;2023-12-20T03:18:35;5.90;99.90
15426;DHT22;7812;50.072;7.036;2023-12-20T03:21:01;5.80;99.90
15426;DHT22;7812;50.072;7.036;2023-12-20T03:23:27;5.80;99.90
15426;DHT22;7812;50.072;7.036;2023-12-20T03:25:52;5.60;99.90
15426;DHT22;7812;50.072;7.036;2023-12-20T03:28:19;5.50;99.90
15426;DHT22;7812;50.072;7.036;2023-12-20T03:30:45;5.40;99.90
15426;DHT22;7812;50.072;7.036;2023-12-20T03:33:10;5.40;99.90
15426;DHT22;7812;50.072;7.036;2023-12-20T03:35:36;5.30;99.90
15426;DHT22;7812;50.072;7.036;2023-12-20T03:38:02;5.40;99.90
15426;DHT22;7812;50.072;7.036;2023-12-20T03:40:28;5.50;99.90
15426;DHT22;7812;50.072;7.036;2023-12-20T03:42:53;5.30;99.90
15426;DHT22;7812;50.072;7.036;2023-12-20T03:45:19;4.80;99.90
15426;DHT22;7812;50.072;7.036;2023-12-20T03:47:45;4.80;99.90
15426;DHT22;7812;50.072;7.036;2023-12-20T03:50:10;4.90;99.90
15426;DHT22;7812;50.072;7.036;2023-12-20T03:52:36;5.10;99.90
15426;DHT22;7812;50.072;7.036;2023-12-20T03:55:07;5.30;99.90
15426;DHT22;7812;50.072;7.036;2023-12-20T03:57:33;5.40;99.90
15426;DHT22;7812;50.072;7.036;2023-12-20T03:59:59;5.30;99.90
15426;DHT22;7812;50.072;7.036;2023-12-20T04:02:24;5.20;99.90
15426;DHT22;7812;50.072;7.036;2023-12-20T04:04:50;5.20;99.90
15426;DHT22;7812;50.072;7.036;2023-12-20T04:07:16;5.10;99.90
15426;DHT22;7812;50.072;7.036;2023-12-20T04:09:41;5.10;99.90
15426;DHT22;7812;50.072;7.036;2023-12-20T04:12:07;5.00;99.90
15426;DHT22;7812;50.072;7.036;2023-12-20T04:14:33;4.90;99.90
15426;DHT22;7812;50.072;7.036;2023-12-20T04:16:58;4.80;99.90
15426;DHT22;7812;50.072;7.036;2023-12-20T04:19:24;4.50;99.90
15426;DHT22;7812;50.072;7.036;2023-12-20T04:21:50;4.40;99.90
15426;DHT22;7812;50.072;7.036;2023-12-20T04:24:15;4.40;99.90
15426;DHT22;7812;50.072;7.036;2023-12-20T04:26:41;4.60;99.90
15426;DHT22;7812;50.072;7.036;2023-12-20T04:29:07;4.70;99.90
15426;DHT22;7812;50.072;7.036;2023-12-20T04:31:32;4.90;99.90
15426;DHT22;7812;50.072;7.036;2023-12-20T04:33:58;4.70;99.90
15426;DHT22;7812;50.072;7.036;2023-12-20T04:36:23;4.60;99.90
15426;DHT22;7812;50.072;7.036;2023-12-20T04:38:52;4.70;99.90
15426;DHT22;7812;50.072;7.036;2023-12-20T04:41:18;4.90;99.90
15426;DHT22;7812;50.072;7.036;2023-12-20T04:43:44;5.00;99.90
15426;DHT22;7812;50.072;7.036;2023-12-20T04:46:10;5.00;99.90
15426;DHT22;7812;50.072;7.036;2023-12-20T04:48:36;4.90;99.90
15426;DHT22;7812;50.072;7.036;2023-12-20T04:51:02;4.80;99.90
15426;DHT22;7812;50.072;7.036;2023-12-20T04:53:27;4.70;99.90
15426;DHT22;7812;50.072;7.036;2023-12-20T04:55:53;4.60;99.90
15426;DHT22;7812;50.072;7.036;2023-12-20T04:58:19;4.40;99.90
15426;DHT22;7812;50.072;7.036;2023-12-20T05:00:44;4.50;99.90
15426;DHT22;7812;50.072;7.036;2023-12-20T05:03:10;4.60;99.90
15426;DHT22;7812;50.072;7.036;2023-12-20T05:05:36;4.80;99.90
15426;DHT22;7812;50.072;7.036;2023-12-20T05:08:01;4.70;99.90
15426;DHT22;7812;50.072;7.036;2023-12-20T05:10:27;4.90;99.90
15426;DHT22;7812;50.072;7.036;2023-12-20T05:12:53;4.80;99.90
15426;DHT22;7812;50.072;7.036;2023-12-20T05:15:19;4.80;99.90
15426;DHT22;7812;50.072;7.036;2023-12-20T05:17:44;4.70;99.90
15426;DHT22;7812;50.072;7.036;2023-12-20T05:20:10;4.90;99.90
15426;DHT22;7812;50.072;7.036;2023-12-20T05:22:36;4.90;99.90
15426;DHT22;7812;50.072;7.036;2023-12-20T05:25:01;4.80;99.90
15426;DHT22;7812;50.072;7.036;2023-12-20T05:27:27;4.70;99.90
15426;DHT22;7812;50.072;7.036;2023-12-20T05:29:53;5.00;99.90
15426;DHT22;7812;50.072;7.036;2023-12-20T05:32:23;5.20;99.90
15426;DHT22;7812;50.072;7.036;2023-12-20T05:34:48;5.10;99.90
15426;DHT22;7812;50.072;7.036;2023-12-20T05:37:14;5.00;99.90
15426;DHT22;7812;50.072;7.036;2023-12-20T05:39:40;5.00;99.90
15426;DHT22;7812;50.072;7.036;2023-12-20T05:42:05;5.10;99.90
15426;DHT22;7812;50.072;7.036;2023-12-20T05:44:31;5.10;99.90
15426;DHT22;7812;50.072;7.036;2023-12-20T05:46:56;5.10;99.90
15426;DHT22;7812;50.072;7.036;2023-12-20T05:49:22;5.00;99.90
15426;DHT22;7812;50.072;7.036;2023-12-20T05:51:48;4.90;99.90
15426;DHT22;7812;50.072;7.036;2023-12-20T05:54:13;4.60;99.90
15426;DHT22;7812;50.072;7.036;2023-12-20T05:56:39;4.60;99.90
15426;DHT22;7812;50.072;7.036;2023-12-20T05:59:05;4.70;99.90
15426;DHT22;7812;50.072;7.036;2023-12-20T06:01:30;4.90;99.90
15426;DHT22;7812;50.072;7.036;2023-12-20T06:03:56;4.90;99.90
15426;DHT22;7812;50.072;7.036;2023-12-20T06:06:23;4.60;99.90
15426;DHT22;7812;50.072;7.036;2023-12-20T06:08:49;4.60;99.90
15426;DHT22;7812;50.072;7.036;2023-12-20T06:11:14;4.70;99.90
15426;DHT22;7812;50.072;7.036;2023-12-20T06:13:40;4.30;99.90
15426;DHT22;7812;50.072;7.036;2023-12-20T06:16:06;4.40;99.90
15426;DHT22;7812;50.072;7.036;2023-12-20T06:18:32;4.50;99.90
15426;DHT22;7812;50.072;7.036;2023-12-20T06:20:58;4.80;99.90
15426;DHT22;7812;50.072;7.036;2023-12-20T06:23:24;4.80;99.90
15426;DHT22;7812;50.072;7.036;2023-12-20T06:25:49;4.90;99.90
15426;DHT22;7812;50.072;7.036;2023-12-20T06:28:15;4.60;99.90
15426;DHT22;7812;50.072;7.036;2023-12-20T06:30:41;4.80;99.90
15426;DHT22;7812;50.072;7.036;2023-12-20T06:33:06;4.50;99.90
15426;DHT22;7812;50.072;7.036;2023-12-20T06:35:32;4.60;99.90
15426;DHT22;7812;50.072;7.036;2023-12-20T06:37:58;4.60;99.90
15426;DHT22;7812;50.072;7.036;2023-12-20T06:40:23;4.60;99.90
15426;DHT22;7812;50.072;7.036;2023-12-20T06:42:49;4.80;99.90
15426;DHT22;7812;50.072;7.036;2023-12-20T06:45:15;4.80;99.90
15426;DHT22;7812;50.072;7.036;2023-12-20T06:47:40;4.90;99.90
15426;DHT22;7812;50.072;7.036;2023-12-20T06:50:06;4.70;99.90
15426;DHT22;7812;50.072;7.036;2023-12-20T06:52:34;4.60;99.90
15426;DHT22;7812;50.072;7.036;2023-12-20T06:55:00;4.30;99.90
15426;DHT22;7812;50.072;7.036;2023-12-20T06:57:26;4.20;99.90
15426;DHT22;7812;50.072;7.036;2023-12-20T06:59:52;4.20;99.90
15426;DHT22;7812;50.072;7.036;2023-12-20T07:02:17;4.40;99.90
15426;DHT22;7812;50.072;7.036;2023-12-20T07:04:43;4.70;99.90
15426;DHT22;7812;50.072;7.036;2023-12-20T07:07:09;4.60;99.90
15426;DHT22;7812;50.072;7.036;2023-12-20T07:09:34;4.70;99.90
15426;DHT22;7812;50.072;7.036;2023-12-20T07:12:00;4.50;99.90
15426;DHT22;7812;50.072;7.036;2023-12-20T07:14:26;4.60;99.90
15426;DHT22;7812;50.072;7.036;2023-12-20T07:16:51;4.60;99.90
15426;DHT22;7812;50.072;7.036;2023-12-20T07:19:17;4.80;99.90
15426;DHT22;7812;50.072;7.036;2023-12-20T07:21:43;5.00;99.90
15426;DHT22;7812;50.072;7.036;2023-12-20T07:24:08;5.00;99.90
15426;DHT22;7812;50.072;7.036;2023-12-20T07:26:35;5.00;99.90
15426;DHT22;7812;50.072;7.036;2023-12-20T07:29:00;5.00;99.90
15426;DHT22;7812;50.072;7.036;2023-12-20T07:31:26;5.00;99.90
15426;DHT22;7812;50.072;7.036;2023-12-20T07:33:52;4.90;99.90
15426;DHT22;7812;50.072;7.036;2023-12-20T07:36:19;4.90;99.90
15426;DHT22;7812;50.072;7.036;2023-12-20T07:38:44;4.90;99.90
15426;DHT22;7812;50.072;7.036;2023-12-20T07:41:10;4.80;99.90
15426;DHT22;7812;50.072;7.036;2023-12-20T07:43:36;4.90;99.90
15426;DHT22;7812;50.072;7.036;2023-12-20T07:46:08;4.90;99.90
15426;DHT22;7812;50.072;7.036;2023-12-20T07:48:37;5.00;99.90
15426;DHT22;7812;50.072;7.036;2023-12-20T07:51:04;5.00;99.90
15426;DHT22;7812;50.072;7.036;2023-12-20T07:53:32;5.10;99.90
15426;DHT22;7812;50.072;7.036;2023-12-20T07:55:57;5.10;99.90
15426;DHT22;7812;50.072;7.036;2023-12-20T07:58:23;5.10;99.90
15426;DHT22;7812;50.072;7.036;2023-12-20T08:00:49;5.20;99.90
15426;DHT22;7812;50.072;7.036;2023-12-20T08:03:14;5.20;99.90
15426;DHT22;7812;50.072;7.036;2023-12-20T08:05:40;5.10;99.90
15426;DHT22;7812;50.072;7.036;2023-12-20T08:08:06;5.20;99.90
15426;DHT22;7812;50.072;7.036;2023-12-20T08:10:32;5.10;99.90
15426;DHT22;7812;50.072;7.036;2023-12-20T08:12:59;5.10;99.90
15426;DHT22;7812;50.072;7.036;2023-12-20T08:15:26;5.10;99.90
15426;DHT22;7812;50.072;7.036;2023-12-20T08:17:52;5.10;99.90
15426;DHT22;7812;50.072;7.036;2023-12-20T08:20:18;5.20;99.90
15426;DHT22;7812;50.072;7.036;2023-12-20T08:22:44;5.20;99.90
15426;DHT22;7812;50.072;7.036;2023-12-20T08:25:09;5.30;99.90
15426;DHT22;7812;50.072;7.036;2023-12-20T08:27:41;5.40;99.90
15426;DHT22;7812;50.072;7.036;2023-12-20T08:30:10;5.40;99.90
15426;DHT22;7812;50.072;7.036;2023-12-20T08:32:36;5.30;99.90
15426;DHT22;7812;50.072;7.036;2023-12-20T08:35:01;5.30;99.90
15426;DHT22;7812;50.072;7.036;2023-12-20T08:37:28;5.40;99.90
15426;DHT22;7812;50.072;7.036;2023-12-20T08:39:55;5.40;99.90
15426;DHT22;7812;50.072;7.036;2023-12-20T08:42:21;5.40;99.90
15426;DHT22;7812;50.072;7.036;2023-12-20T08:44:46;5.50;99.90
15426;DHT22;7812;50.072;7.036;2023-12-20T08:47:12;5.50;99.90
15426;DHT22;7812;50.072;7.036;2023-12-20T08:49:41;5.60;99.90
15426;DHT22;7812;50.072;7.036;2023-12-20T08:52:06;5.60;99.90
15426;DHT22;7812;50.072;7.036;2023-12-20T08:54:32;5.60;99.90
15426;DHT22;7812;50.072;7.036;2023-12-20T08:56:58;5.60;99.90
15426;DHT22;7812;50.072;7.036;2023-12-20T08:59:23;5.70;99.90
15426;DHT22;7812;50.072;7.036;2023-12-20T09:01:49;5.80;99.90
15426;DHT22;7812;50.072;7.036;2023-12-20T09:04:19;6.00;99.90
15426;DHT22;7812;50.072;7.036;2023-12-20T09:06:45;6.10;99.90
15426;DHT22;7812;50.072;7.036;2023-12-20T09:09:11;6.00;99.90
15426;DHT22;7812;50.072;7.036;2023-12-20T09:11:39;6.00;99.90
15426;DHT22;7812;50.072;7.036;2023-12-20T09:14:04;6.20;99.90
15426;DHT22;7812;50.072;7.036;2023-12-20T09:16:30;6.10;99.90
15426;DHT22;7812;50.072;7.036;2023-12-20T09:18:57;6.10;99.90
15426;DHT22;7812;50.072;7.036;2023-12-20T09:21:22;5.90;99.90
15426;DHT22;7812;50.072;7.036;2023-12-20T09:23:48;5.90;99.90
15426;DHT22;7812;50.072;7.036;2023-12-20T09:26:14;6.00;99.90
15426;DHT22;7812;50.072;7.036;2023-12-20T09:28:39;5.90;99.90
15426;DHT22;7812;50.072;7.036;2023-12-20T09:31:07;5.80;99.90
15426;DHT22;7812;50.072;7.036;2023-12-20T09:33:33;5.80;99.90
15426;DHT22;7812;50.072;7.036;2023-12-20T09:35:59;5.70;99.90
15426;DHT22;7812;50.072;7.036;2023-12-20T09:38:25;5.80;99.90
15426;DHT22;7812;50.072;7.036;2023-12-20T09:40:51;5.80;99.90
15426;DHT22;7812;50.072;7.036;2023-12-20T09:43:19;5.90;99.90
15426;DHT22;7812;50.072;7.036;2023-12-20T09:45:48;6.00;99.90
15426;DHT22;7812;50.072;7.036;2023-12-20T09:48:17;6.20;99.90
15426;DHT22;7812;50.072;7.036;2023-12-20T09:50:44;6.20;99.90
15426;DHT22;7812;50.072;7.036;2023-12-20T09:53:14;6.20;99.90
15426;DHT22;7812;50.072;7.036;2023-12-20T09:55:41;6.20;99.90
15426;DHT22;7812;50.072;7.036;2023-12-20T09:58:07;6.20;99.90
15426;DHT22;7812;50.072;7.036;2023-12-20T10:00:34;6.40;99.90
15426;DHT22;7812;50.072;7.036;2023-12-20T10:03:00;6.50;99.90
15426;DHT22;7812;50.072;7.036;2023-12-20T10:05:31;6.40;99.90
15426;DHT22;7812;50.072;7.036;2023-12-20T10:07:58;6.40;99.90
15426;DHT22;7812;50.072;7.036;2023-12-20T10:10:24;6.40;99.90
15426;DHT22;7812;50.072;7.036;2023-12-20T10:15:28;6.50;99.90
15426;DHT22;7812;50.072;7.036;2023-12-20T10:17:54;6.60;99.90
15426;DHT22;7812;50.072;7.036;2023-12-20T10:20:20;6.70;99.90
15426;DHT22;7812;50.072;7.036;2023-12-20T10:22:46;6.60;99.90
15426;DHT22;7812;50.072;7.036;2023-12-20T10:25:12;6.50;99.90
15426;DHT22;7812;50.072;7.036;2023-12-20T10:27:37;6.40;99.90
15426;DHT22;7812;50.072;7.036;2023-12-20T10:30:03;6.50;99.90
15426;DHT22;7812;50.072;7.036;2023-12-20T10:32:31;6.90;99.90
15426;DHT22;7812;50.072;7.036;2023-12-20T10:34:57;7.00;99.90
15426;DHT22;7812;50.072;7.036;2023-12-20T10:37:24;7.10;99.90
15426;DHT22;7812;50.072;7.036;2023-12-20T10:39:52;7.20;99.90
15426;DHT22;7812;50.072;7.036;2023-12-20T10:42:22;7.10;99.90
15426;DHT22;7812;50.072;7.036;2023-12-20T10:44:49;7.00;99.90
15426;DHT22;7812;50.072;7.036;2023-12-20T10:47:15;6.90;99.90
15426;DHT22;7812;50.072;7.036;2023-12-20T10:49:42;6.70;99.90
15426;DHT22;7812;50.072;7.036;2023-12-20T10:52:09;6.50;99.90
15426;DHT22;7812;50.072;7.036;2023-12-20T10:54:36;6.40;99.90
15426;DHT22;7812;50.072;7.036;2023-12-20T10:57:05;6.30;99.90
15426;DHT22;7812;50.072;7.036;2023-12-20T10:59:33;6.30;99.90
15426;DHT22;7812;50.072;7.036;2023-12-20T11:01:59;6.20;99.90
15426;DHT22;7812;50.072;7.036;2023-12-20T11:05:00;6.30;99.90
15426;DHT22;7812;50.072;7.036;2023-12-20T11:10:10;6.50;99.90
15426;DHT22;7812;50.072;7.036;2023-12-20T11:13:08;6.40;99.90
15426;DHT22;7812;50.072;7.036;2023-12-20T11:15:36;6.40;99.90
15426;DHT22;7812;50.072;7.036;2023-12-20T11:18:02;6.40;99.90
15426;DHT22;7812;50.072;7.036;2023-12-20T11:20:37;6.40;99.90
15426;DHT22;7812;50.072;7.036;2023-12-20T11:23:03;6.40;99.90
15426;DHT22;7812;50.072;7.036;2023-12-20T11:25:29;6.50;99.90
15426;DHT22;7812;50.072;7.036;2023-12-20T11:28:09;6.80;99.90
15426;DHT22;7812;50.072;7.036;2023-12-20T11:31:01;6.90;99.90
15426;DHT22;7812;50.072;7.036;2023-12-20T11:33:46;6.80;99.90
15426;DHT22;7812;50.072;7.036;2023-12-20T11:36:19;6.70;99.90
15426;DHT22;7812;50.072;7.036;2023-12-20T11:38:55;6.60;99.90
15426;DHT22;7812;50.072;7.036;2023-12-20T11:41:23;6.60;99.90
15426;DHT22;7812;50.072;7.036;2023-12-20T11:43:53;6.60;99.90
15426;DHT22;7812;50.072;7.036;2023-12-20T11:46:19;6.70;99.90
15426;DHT22;7812;50.072;7.036;2023-12-20T11:48:46;6.70;99.90
15426;DHT22;7812;50.072;7.036;2023-12-20T11:51:13;6.50;99.90
15426;DHT22;7812;50.072;7.036;2023-12-20T11:53:40;6.30;99.90
15426;DHT22;7812;50.072;7.036;2023-12-20T11:56:07;6.30;99.90
15426;DHT22;7812;50.072;7.036;2023-12-20T11:58:34;6.20;99.90
15426;DHT22;7812;50.072;7.036;2023-12-20T12:01:00;6.30;99.90
15426;DHT22;7812;50.072;7.036;2023-12-20T12:03:28;6.30;99.90
15426;DHT22;7812;50.072;7.036;2023-12-20T12:05:53;6.20;99.90
15426;DHT22;7812;50.072;7.036;2023-12-20T12:08:19;6.30;99.90
15426;DHT22;7812;50.072;7.036;2023-12-20T12:10:45;6.30;99.90
15426;DHT22;7812;50.072;7.036;2023-12-20T12:13:11;6.20;99.90
15426;DHT22;7812;50.072;7.036;2023-12-20T12:15:37;6.20;99.90
15426;DHT22;7812;50.072;7.036;2023-12-20T12:18:03;6.20;99.90
15426;DHT22;7812;50.072;7.036;2023-12-20T12:20:29;6.10;99.90
15426;DHT22;7812;50.072;7.036;2023-12-20T12:22:59;6.10;99.90
15426;DHT22;7812;50.072;7.036;2023-12-20T12:25:25;6.10;99.90
15426;DHT22;7812;50.072;7.036;2023-12-20T12:27:51;6.10;99.90
15426;DHT22;7812;50.072;7.036;2023-12-20T12:30:17;6.10;99.90
15426;DHT22;7812;50.072;7.036;2023-12-20T12:32:46;6.10;99.90
15426;DHT22;7812;50.072;7.036;2023-12-20T12:35:12;6.10;99.90
15426;DHT22;7812;50.072;7.036;2023-12-20T12:37:39;6.20;99.90
15426;DHT22;7812;50.072;7.036;2023-12-20T12:40:10;6.20;99.90
15426;DHT22;7812;50.072;7.036;2023-12-20T12:42:40;6.20;99.90
15426;DHT22;7812;50.072;7.036;2023-12-20T12:45:07;6.10;99.90
15426;DHT22;7812;50.072;7.036;2023-12-20T12:47:34;6.20;99.90
15426;DHT22;7812;50.072;7.036;2023-12-20T12:50:00;6.20;99.90
15426;DHT22;7812;50.072;7.036;2023-12-20T12:52:25;6.20;99.90
15426;DHT22;7812;50.072;7.036;2023-12-20T12:54:52;6.30;99.90
15426;DHT22;7812;50.072;7.036;2023-12-20T12:57:18;6.30;99.90
15426;DHT22;7812;50.072;7.036;2023-12-20T12:59:45;6.20;99.90
15426;DHT22;7812;50.072;7.036;2023-12-20T13:02:13;6.10;99.90
15426;DHT22;7812;50.072;7.036;2023-12-20T13:04:40;6.10;99.90
15426;DHT22;7812;50.072;7.036;2023-12-20T13:07:06;6.00;99.90
15426;DHT22;7812;50.072;7.036;2023-12-20T13:09:32;6.10;99.90
15426;DHT22;7812;50.072;7.036;2023-12-20T13:11:58;6.10;99.90
15426;DHT22;7812;50.072;7.036;2023-12-20T13:14:24;6.10;99.90
15426;DHT22;7812;50.072;7.036;2023-12-20T13:16:50;6.00;99.90
15426;DHT22;7812;50.072;7.036;2023-12-20T13:19:15;6.00;99.90
15426;DHT22;7812;50.072;7.036;2023-12-20T13:21:41;6.00;99.90
15426;DHT22;7812;50.072;7.036;2023-12-20T13:24:07;5.90;99.90
15426;DHT22;7812;50.072;7.036;2023-12-20T13:26:32;5.90;99.90
15426;DHT22;7812;50.072;7.036;2023-12-20T13:28:58;6.00;99.90
15426;DHT22;7812;50.072;7.036;2023-12-20T13:31:24;6.00;99.90
15426;DHT22;7812;50.072;7.036;2023-12-20T13:33:50;6.10;99.90
15426;DHT22;7812;50.072;7.036;2023-12-20T13:36:17;6.10;99.90
15426;DHT22;7812;50.072;7.036;2023-12-20T13:38:43;6.10;99.90
15426;DHT22;7812;50.072;7.036;2023-12-20T13:41:09;6.00;99.90
15426;DHT22;7812;50.072;7.036;2023-12-20T13:43:35;6.00;99.90
15426;DHT22;7812;50.072;7.036;2023-12-20T13:46:00;6.00;99.90
15426;DHT22;7812;50.072;7.036;2023-12-20T13:48:26;6.00;99.90
15426;DHT22;7812;50.072;7.036;2023-12-20T13:50:52;6.00;99.90
15426;DHT22;7812;50.072;7.036;2023-12-20T13:53:18;6.00;99.90
15426;DHT22;7812;50.072;7.036;2023-12-20T13:55:44;6.00;99.90
15426;DHT22;7812;50.072;7.036;2023-12-20T13:58:10;6.00;99.90
15426;DHT22;7812;50.072;7.036;2023-12-20T14:00:36;6.10;99.90
15426;DHT22;7812;50.072;7.036;2023-12-20T14:03:05;6.20;99.90
15426;DHT22;7812;50.072;7.036;2023-12-20T14:05:31;6.20;99.90
15426;DHT22;7812;50.072;7.036;2023-12-20T14:08:06;6.10;99.90
15426;DHT22;7812;50.072;7.036;2023-12-20T14:10:33;6.10;99.90
15426;DHT22;7812;50.072;7.036;2023-12-20T14:12:58;6.10;99.90
15426;DHT22;7812;50.072;7.036;2023-12-20T14:15:24;6.10;99.90
15426;DHT22;7812;50.072;7.036;2023-12-20T14:17:50;6.10;99.90
15426;DHT22;7812;50.072;7.036;2023-12-20T14:20:16;6.10;99.90
15426;DHT22;7812;50.072;7.036;2023-12-20T14:22:43;6.10;99.90
15426;DHT22;7812;50.072;7.036;2023-12-20T14:25:13;6.10;99.90
15426;DHT22;7812;50.072;7.036;2023-12-20T14:27:39;6.10;99.90
15426;DHT22;7812;50.072;7.036;2023-12-20T14:30:06;6.10;99.90
15426;DHT22;7812;50.072;7.036;2023-12-20T14:32:34;6.10;99.90
15426;DHT22;7812;50.072;7.036;2023-12-20T14:35:02;6.10;99.90
15426;DHT22;7812;50.072;7.036;2023-12-20T14:37:29;6.10;99.90
15426;DHT22;7812;50.072;7.036;2023-12-20T14:39:55;6.10;99.90
15426;DHT22;7812;50.072;7.036;2023-12-20T14:42:27;6.20;99.90
15426;DHT22;7812;50.072;7.036;2023-12-20T14:44:52;6.20;99.90
15426;DHT22;7812;50.072;7.036;2023-12-20T14:47:19;6.20;99.90
15426;DHT22;7812;50.072;7.036;2023-12-20T14:49:45;6.20;99.90
15426;DHT22;7812;50.072;7.036;2023-12-20T14:52:13;6.20;99.90
15426;DHT22;7812;50.072;7.036;2023-12-20T14:54:38;6.20;99.90
15426;DHT22;7812;50.072;7.036;2023-12-20T14:57:04;6.10;99.90
15426;DHT22;7812;50.072;7.036;2023-12-20T14:59:30;6.20;99.90
15426;DHT22;7812;50.072;7.036;2023-12-20T15:01:55;6.20;99.90
15426;DHT22;7812;50.072;7.036;2023-12-20T15:04:21;6.30;99.90
15426;DHT22;7812;50.072;7.036;2023-12-20T15:06:54;6.20;99.90
15426;DHT22;7812;50.072;7.036;2023-12-20T15:09:20;6.30;99.90
15426;DHT22;7812;50.072;7.036;2023-12-20T15:11:45;6.30;99.90
15426;DHT22;7812;50.072;7.036;2023-12-20T15:14:11;6.30;99.90
15426;DHT22;7812;50.072;7.036;2023-12-20T15:16:39;6.30;99.90
15426;DHT22;7812;50.072;7.036;2023-12-20T15:19:05;6.30;99.90
15426;DHT22;7812;50.072;7.036;2023-12-20T15:21:31;6.20;99.90
15426;DHT22;7812;50.072;7.036;2023-12-20T15:23:58;6.30;99.90
15426;DHT22;7812;50.072;7.036;2023-12-20T15:26:34;6.30;99.90
15426;DHT22;7812;50.072;7.036;2023-12-20T15:29:00;6.30;99.90
15426;DHT22;7812;50.072;7.036;2023-12-20T15:31:27;6.30;99.90
15426;DHT22;7812;50.072;7.036;2023-12-20T15:33:53;6.40;99.90
15426;DHT22;7812;50.072;7.036;2023-12-20T15:36:19;6.40;99.90
15426;DHT22;7812;50.072;7.036;2023-12-20T15:38:45;6.30;99.90
15426;DHT22;7812;50.072;7.036;2023-12-20T15:41:21;6.30;99.90
15426;DHT22;7812;50.072;7.036;2023-12-20T15:43:46;6.30;99.90
15426;DHT22;7812;50.072;7.036;2023-12-20T15:46:13;6.30;99.90
15426;DHT22;7812;50.072;7.036;2023-12-20T15:48:39;6.30;99.90
15426;DHT22;7812;50.072;7.036;2023-12-20T15:51:08;6.20;99.90
15426;DHT22;7812;50.072;7.036;2023-12-20T15:53:34;6.30;99.90
15426;DHT22;7812;50.072;7.036;2023-12-20T15:56:00;6.30;99.90
15426;DHT22;7812;50.072;7.036;2023-12-20T15:58:25;6.40;99.90
15426;DHT22;7812;50.072;7.036;2023-12-20T16:00:52;6.40;99.90
15426;DHT22;7812;50.072;7.036;2023-12-20T16:03:18;6.30;99.90